sensor_id;sensor_type;location;lat;lon;timestamp;P1;durP1;ratioP1;P2;durP2;ratioP2
38851;SDS011;24605;50.092;9.182;2023-04-03T00:00:27;5.78;;;2.75;;
38851;SDS011;24605;50.092;9.182;2023-04-03T00:02:55;6.43;;;2.85;;
38851;SDS011;24605;50.092;9.182;2023-04-03T00:05:22;6.57;;;2.75;;
38851;SDS011;24605;50.092;9.182;2023-04-03T00:07:48;5.45;;;2.53;;
38851;SDS011;24605;50.092;9.182;2023-04-03T00:10:16;4.82;;;2.53;;
38851;SDS011;24605;50.092;9.182;2023-04-03T00:12:42;5.13;;;2.10;;
38851;SDS011;24605;50.092;9.182;2023-04-03T00:15:09;4.10;;;2.45;;
38851;SDS011;24605;50.092;9.182;2023-04-03T00:17:36;4.82;;;2.40;;
38851;SDS011;24605;50.092;9.182;2023-04-03T00:20:04;7.57;;;2.55;;
38851;SDS011;24605;50.092;9.182;2023-04-03T00:22:31;4.72;;;2.35;;
38851;SDS011;24605;50.092;9.182;2023-04-03T00:24:58;6.00;;;2.67;;
38851;SDS011;24605;50.092;9.182;2023-04-03T00:27:25;5.03;;;2.60;;
38851;SDS011;24605;50.092;9.182;2023-04-03T00:29:51;6.32;;;2.45;;
38851;SDS011;24605;50.092;9.182;2023-04-03T00:32:18;5.10;;;2.20;;
38851;SDS011;24605;50.092;9.182;2023-04-03T00:34:44;5.88;;;2.40;;
38851;SDS011;24605;50.092;9.182;2023-04-03T00:37:12;7.93;;;2.22;;
38851;SDS011;24605;50.092;9.182;2023-04-03T00:39:39;4.03;;;2.00;;
38851;SDS011;24605;50.092;9.182;2023-04-03T00:42:05;5.30;;;2.40;;
38851;SDS011;24605;50.092;9.182;2023-04-03T00:47:36;7.25;;;2.30;;
38851;SDS011;24605;50.092;9.182;2023-04-03T00:50:04;4.78;;;1.90;;
38851;SDS011;24605;50.092;9.182;2023-04-03T00:52:33;4.07;;;2.10;;
38851;SDS011;24605;50.092;9.182;2023-04-03T00:55:00;5.70;;;2.10;;
38851;SDS011;24605;50.092;9.182;2023-04-03T00:57:30;5.43;;;2.30;;
38851;SDS011;24605;50.092;9.182;2023-04-03T00:59:59;3.65;;;2.05;;
38851;SDS011;24605;50.092;9.182;2023-04-03T01:02:31;6.85;;;2.00;;
38851;SDS011;24605;50.092;9.182;2023-04-03T01:04:57;6.75;;;2.10;;
38851;SDS011;24605;50.092;9.182;2023-04-03T01:07:26;4.32;;;1.90;;
38851;SDS011;24605;50.092;9.182;2023-04-03T01:09:57;5.22;;;2.40;;
38851;SDS011;24605;50.092;9.182;2023-04-03T01:12:26;6.13;;;2.00;;
38851;SDS011;24605;50.092;9.182;2023-04-03T01:14:54;4.80;;;2.10;;
38851;SDS011;24605;50.092;9.182;2023-04-03T01:17:29;7.82;;;2.20;;
38851;SDS011;24605;50.092;9.182;2023-04-03T01:20:02;4.53;;;2.05;;
38851;SDS011;24605;50.092;9.182;2023-04-03T01:22:56;4.80;;;1.88;;
38851;SDS011;24605;50.092;9.182;2023-04-03T01:25:32;4.53;;;1.90;;
38851;SDS011;24605;50.092;9.182;2023-04-03T01:28:00;6.50;;;2.20;;
38851;SDS011;24605;50.092;9.182;2023-04-03T01:30:28;3.85;;;1.92;;
38851;SDS011;24605;50.092;9.182;2023-04-03T01:33:00;5.65;;;2.20;;
38851;SDS011;24605;50.092;9.182;2023-04-03T01:35:27;6.57;;;2.63;;
38851;SDS011;24605;50.092;9.182;2023-04-03T01:37:53;3.83;;;1.90;;
38851;SDS011;24605;50.092;9.182;2023-04-03T01:40:20;6.57;;;2.60;;
38851;SDS011;24605;50.092;9.182;2023-04-03T01:42:46;5.47;;;2.13;;
38851;SDS011;24605;50.092;9.182;2023-04-03T01:45:13;6.50;;;2.08;;
38851;SDS011;24605;50.092;9.182;2023-04-03T01:47:40;7.07;;;2.70;;
38851;SDS011;24605;50.092;9.182;2023-04-03T01:50:08;5.30;;;2.08;;
38851;SDS011;24605;50.092;9.182;2023-04-03T01:52:35;5.80;;;2.50;;
38851;SDS011;24605;50.092;9.182;2023-04-03T01:55:01;4.15;;;2.03;;
38851;SDS011;24605;50.092;9.182;2023-04-03T01:57:27;6.55;;;2.53;;
38851;SDS011;24605;50.092;9.182;2023-04-03T01:59:54;7.35;;;2.13;;
38851;SDS011;24605;50.092;9.182;2023-04-03T02:02:20;5.05;;;2.30;;
38851;SDS011;24605;50.092;9.182;2023-04-03T02:04:47;4.95;;;2.13;;
38851;SDS011;24605;50.092;9.182;2023-04-03T02:07:15;5.15;;;2.30;;
38851;SDS011;24605;50.092;9.182;2023-04-03T02:09:42;7.10;;;2.50;;
38851;SDS011;24605;50.092;9.182;2023-04-03T02:12:08;5.53;;;2.30;;
38851;SDS011;24605;50.092;9.182;2023-04-03T02:14:34;6.50;;;2.40;;
38851;SDS011;24605;50.092;9.182;2023-04-03T02:17:01;5.53;;;2.40;;
38851;SDS011;24605;50.092;9.182;2023-04-03T02:19:30;7.05;;;2.67;;
38851;SDS011;24605;50.092;9.182;2023-04-03T02:21:56;7.40;;;2.97;;
38851;SDS011;24605;50.092;9.182;2023-04-03T02:24:24;7.30;;;2.60;;
38851;SDS011;24605;50.092;9.182;2023-04-03T02:26:51;6.45;;;2.65;;
38851;SDS011;24605;50.092;9.182;2023-04-03T02:29:17;5.22;;;2.47;;
38851;SDS011;24605;50.092;9.182;2023-04-03T02:31:44;8.02;;;2.92;;
38851;SDS011;24605;50.092;9.182;2023-04-03T02:34:10;5.80;;;2.35;;
38851;SDS011;24605;50.092;9.182;2023-04-03T02:36:37;8.20;;;2.30;;
38851;SDS011;24605;50.092;9.182;2023-04-03T02:39:04;6.82;;;2.47;;
38851;SDS011;24605;50.092;9.182;2023-04-03T02:41:32;7.68;;;2.40;;
38851;SDS011;24605;50.092;9.182;2023-04-03T02:44:00;7.20;;;2.55;;
38851;SDS011;24605;50.092;9.182;2023-04-03T02:46:27;5.45;;;1.90;;
38851;SDS011;24605;50.092;9.182;2023-04-03T02:48:53;9.18;;;2.30;;
38851;SDS011;24605;50.092;9.182;2023-04-03T02:51:20;7.63;;;2.20;;
38851;SDS011;24605;50.092;9.182;2023-04-03T02:53:48;5.70;;;2.10;;
38851;SDS011;24605;50.092;9.182;2023-04-03T02:56:14;8.48;;;2.35;;
38851;SDS011;24605;50.092;9.182;2023-04-03T02:58:43;6.72;;;2.50;;
38851;SDS011;24605;50.092;9.182;2023-04-03T03:01:10;5.93;;;2.60;;
38851;SDS011;24605;50.092;9.182;2023-04-03T03:03:37;5.55;;;2.20;;
38851;SDS011;24605;50.092;9.182;2023-04-03T03:06:04;6.35;;;2.50;;
38851;SDS011;24605;50.092;9.182;2023-04-03T03:08:32;5.97;;;2.42;;
38851;SDS011;24605;50.092;9.182;2023-04-03T03:11:00;6.57;;;2.40;;
38851;SDS011;24605;50.092;9.182;2023-04-03T03:13:26;8.60;;;2.28;;
38851;SDS011;24605;50.092;9.182;2023-04-03T03:15:54;6.93;;;2.00;;
38851;SDS011;24605;50.092;9.182;2023-04-03T03:18:21;6.28;;;2.05;;
38851;SDS011;24605;50.092;9.182;2023-04-03T03:20:50;10.23;;;2.17;;
38851;SDS011;24605;50.092;9.182;2023-04-03T03:23:17;9.00;;;2.22;;
38851;SDS011;24605;50.092;9.182;2023-04-03T03:25:43;6.88;;;2.10;;
38851;SDS011;24605;50.092;9.182;2023-04-03T03:28:10;8.82;;;2.10;;
38851;SDS011;24605;50.092;9.182;2023-04-03T03:30:39;8.13;;;2.22;;
38851;SDS011;24605;50.092;9.182;2023-04-03T03:33:07;8.13;;;2.08;;
38851;SDS011;24605;50.092;9.182;2023-04-03T03:35:34;7.82;;;2.28;;
38851;SDS011;24605;50.092;9.182;2023-04-03T03:38:00;7.82;;;2.10;;
38851;SDS011;24605;50.092;9.182;2023-04-03T03:40:26;8.40;;;2.28;;
38851;SDS011;24605;50.092;9.182;2023-04-03T03:42:53;8.45;;;2.60;;
38851;SDS011;24605;50.092;9.182;2023-04-03T03:45:19;8.43;;;2.00;;
38851;SDS011;24605;50.092;9.182;2023-04-03T03:47:46;6.75;;;2.17;;
38851;SDS011;24605;50.092;9.182;2023-04-03T03:50:14;6.07;;;1.80;;
38851;SDS011;24605;50.092;9.182;2023-04-03T03:52:40;8.75;;;2.13;;
38851;SDS011;24605;50.092;9.182;2023-04-03T03:55:07;6.38;;;2.00;;
38851;SDS011;24605;50.092;9.182;2023-04-03T03:57:34;8.20;;;2.40;;
38851;SDS011;24605;50.092;9.182;2023-04-03T04:00:00;7.07;;;2.00;;
38851;SDS011;24605;50.092;9.182;2023-04-03T04:02:27;6.75;;;2.00;;
38851;SDS011;24605;50.092;9.182;2023-04-03T04:04:53;4.78;;;1.95;;
38851;SDS011;24605;50.092;9.182;2023-04-03T04:07:21;8.50;;;2.65;;
38851;SDS011;24605;50.092;9.182;2023-04-03T04:09:48;7.18;;;2.40;;
38851;SDS011;24605;50.092;9.182;2023-04-03T04:12:15;8.38;;;1.90;;
38851;SDS011;24605;50.092;9.182;2023-04-03T04:14:41;6.22;;;2.17;;
38851;SDS011;24605;50.092;9.182;2023-04-03T04:17:11;6.68;;;2.42;;
38851;SDS011;24605;50.092;9.182;2023-04-03T04:19:37;6.50;;;2.15;;
38851;SDS011;24605;50.092;9.182;2023-04-03T04:22:04;7.38;;;2.13;;
38851;SDS011;24605;50.092;9.182;2023-04-03T04:24:32;5.95;;;2.30;;
38851;SDS011;24605;50.092;9.182;2023-04-03T04:26:58;8.50;;;2.40;;
38851;SDS011;24605;50.092;9.182;2023-04-03T04:29:25;7.00;;;2.13;;
38851;SDS011;24605;50.092;9.182;2023-04-03T04:31:52;4.88;;;2.47;;
38851;SDS011;24605;50.092;9.182;2023-04-03T04:34:18;7.25;;;2.40;;
38851;SDS011;24605;50.092;9.182;2023-04-03T04:36:45;12.25;;;2.95;;
38851;SDS011;24605;50.092;9.182;2023-04-03T04:39:11;5.60;;;2.65;;
38851;SDS011;24605;50.092;9.182;2023-04-03T04:41:39;10.02;;;2.50;;
38851;SDS011;24605;50.092;9.182;2023-04-03T04:44:05;9.05;;;2.30;;
38851;SDS011;24605;50.092;9.182;2023-04-03T04:46:32;6.53;;;2.40;;
38851;SDS011;24605;50.092;9.182;2023-04-03T04:48:59;9.23;;;2.28;;
38851;SDS011;24605;50.092;9.182;2023-04-03T04:51:25;17.15;;;2.45;;
38851;SDS011;24605;50.092;9.182;2023-04-03T04:53:52;7.82;;;2.75;;
38851;SDS011;24605;50.092;9.182;2023-04-03T04:56:18;5.85;;;2.15;;
38851;SDS011;24605;50.092;9.182;2023-04-03T04:58:47;5.22;;;2.35;;
38851;SDS011;24605;50.092;9.182;2023-04-03T05:01:13;11.93;;;2.67;;
38851;SDS011;24605;50.092;9.182;2023-04-03T05:03:40;6.22;;;2.65;;
38851;SDS011;24605;50.092;9.182;2023-04-03T05:06:07;6.00;;;2.25;;
38851;SDS011;24605;50.092;9.182;2023-04-03T05:08:33;7.07;;;2.60;;
38851;SDS011;24605;50.092;9.182;2023-04-03T05:11:00;8.00;;;2.80;;
38851;SDS011;24605;50.092;9.182;2023-04-03T05:13:26;7.97;;;2.58;;
38851;SDS011;24605;50.092;9.182;2023-04-03T05:15:54;5.88;;;2.40;;
38851;SDS011;24605;50.092;9.182;2023-04-03T05:18:21;9.50;;;2.72;;
38851;SDS011;24605;50.092;9.182;2023-04-03T05:20:48;8.18;;;2.78;;
38851;SDS011;24605;50.092;9.182;2023-04-03T05:23:15;8.90;;;2.53;;
38851;SDS011;24605;50.092;9.182;2023-04-03T05:25:41;6.90;;;2.67;;
38851;SDS011;24605;50.092;9.182;2023-04-03T05:28:09;11.30;;;2.53;;
38851;SDS011;24605;50.092;9.182;2023-04-03T05:30:35;7.22;;;2.80;;
38851;SDS011;24605;50.092;9.182;2023-04-03T05:33:03;9.00;;;3.08;;
38851;SDS011;24605;50.092;9.182;2023-04-03T05:35:30;8.02;;;2.72;;
38851;SDS011;24605;50.092;9.182;2023-04-03T05:37:57;5.95;;;2.47;;
38851;SDS011;24605;50.092;9.182;2023-04-03T05:40:24;10.57;;;3.22;;
38851;SDS011;24605;50.092;9.182;2023-04-03T05:42:50;9.95;;;3.22;;
38851;SDS011;24605;50.092;9.182;2023-04-03T05:45:18;6.13;;;2.70;;
38851;SDS011;24605;50.092;9.182;2023-04-03T05:47:44;9.75;;;3.00;;
38851;SDS011;24605;50.092;9.182;2023-04-03T05:50:13;9.98;;;3.25;;
38851;SDS011;24605;50.092;9.182;2023-04-03T05:52:40;8.60;;;3.20;;
38851;SDS011;24605;50.092;9.182;2023-04-03T05:55:10;7.90;;;4.15;;
38851;SDS011;24605;50.092;9.182;2023-04-03T05:57:36;8.93;;;3.10;;
38851;SDS011;24605;50.092;9.182;2023-04-03T06:00:03;9.63;;;3.17;;
38851;SDS011;24605;50.092;9.182;2023-04-03T06:02:31;6.53;;;3.10;;
38851;SDS011;24605;50.092;9.182;2023-04-03T06:04:57;10.30;;;3.33;;
38851;SDS011;24605;50.092;9.182;2023-04-03T06:07:25;8.80;;;3.10;;
38851;SDS011;24605;50.092;9.182;2023-04-03T06:09:53;5.88;;;3.30;;
38851;SDS011;24605;50.092;9.182;2023-04-03T06:12:21;9.07;;;3.28;;
38851;SDS011;24605;50.092;9.182;2023-04-03T06:14:48;8.13;;;3.00;;
38851;SDS011;24605;50.092;9.182;2023-04-03T06:17:18;9.88;;;3.33;;
38851;SDS011;24605;50.092;9.182;2023-04-03T06:19:45;7.00;;;3.30;;
38851;SDS011;24605;50.092;9.182;2023-04-03T06:22:12;9.10;;;3.10;;
38851;SDS011;24605;50.092;9.182;2023-04-03T06:24:41;7.22;;;3.20;;
38851;SDS011;24605;50.092;9.182;2023-04-03T06:27:09;8.98;;;3.42;;
38851;SDS011;24605;50.092;9.182;2023-04-03T06:29:36;8.38;;;3.65;;
38851;SDS011;24605;50.092;9.182;2023-04-03T06:32:02;10.90;;;4.93;;
38851;SDS011;24605;50.092;9.182;2023-04-03T06:34:34;7.70;;;3.45;;
38851;SDS011;24605;50.092;9.182;2023-04-03T06:37:02;7.85;;;3.20;;
38851;SDS011;24605;50.092;9.182;2023-04-03T06:39:30;9.30;;;3.28;;
38851;SDS011;24605;50.092;9.182;2023-04-03T06:41:57;7.95;;;3.25;;
38851;SDS011;24605;50.092;9.182;2023-04-03T06:44:24;8.60;;;3.33;;
38851;SDS011;24605;50.092;9.182;2023-04-03T06:46:51;9.52;;;3.50;;
38851;SDS011;24605;50.092;9.182;2023-04-03T06:49:19;8.88;;;3.53;;
38851;SDS011;24605;50.092;9.182;2023-04-03T06:51:46;7.32;;;3.33;;
38851;SDS011;24605;50.092;9.182;2023-04-03T06:54:13;8.00;;;3.28;;
38851;SDS011;24605;50.092;9.182;2023-04-03T06:56:39;10.13;;;3.30;;
38851;SDS011;24605;50.092;9.182;2023-04-03T06:59:08;7.40;;;3.20;;
38851;SDS011;24605;50.092;9.182;2023-04-03T07:01:35;6.07;;;2.90;;
38851;SDS011;24605;50.092;9.182;2023-04-03T07:04:02;12.88;;;4.30;;
38851;SDS011;24605;50.092;9.182;2023-04-03T07:06:28;6.43;;;2.97;;
38851;SDS011;24605;50.092;9.182;2023-04-03T07:08:56;8.93;;;3.05;;
38851;SDS011;24605;50.092;9.182;2023-04-03T07:11:22;8.27;;;3.55;;
38851;SDS011;24605;50.092;9.182;2023-04-03T07:13:49;16.35;;;4.72;;
38851;SDS011;24605;50.092;9.182;2023-04-03T07:16:17;8.82;;;3.08;;
38851;SDS011;24605;50.092;9.182;2023-04-03T07:18:44;8.82;;;2.90;;
38851;SDS011;24605;50.092;9.182;2023-04-03T07:21:11;6.50;;;2.70;;
38851;SDS011;24605;50.092;9.182;2023-04-03T07:23:38;9.02;;;3.17;;
38851;SDS011;24605;50.092;9.182;2023-04-03T07:26:05;13.85;;;3.45;;
38851;SDS011;24605;50.092;9.182;2023-04-03T07:28:33;7.65;;;2.90;;
38851;SDS011;24605;50.092;9.182;2023-04-03T07:31:00;7.45;;;2.97;;
38851;SDS011;24605;50.092;9.182;2023-04-03T07:33:29;7.78;;;2.83;;
38851;SDS011;24605;50.092;9.182;2023-04-03T07:35:56;5.53;;;2.65;;
38851;SDS011;24605;50.092;9.182;2023-04-03T07:38:23;9.10;;;2.70;;
38851;SDS011;24605;50.092;9.182;2023-04-03T07:40:50;7.38;;;2.90;;
38851;SDS011;24605;50.092;9.182;2023-04-03T07:43:19;10.05;;;2.80;;
38851;SDS011;24605;50.092;9.182;2023-04-03T07:45:47;8.38;;;2.45;;
38851;SDS011;24605;50.092;9.182;2023-04-03T07:48:16;6.65;;;2.70;;
38851;SDS011;24605;50.092;9.182;2023-04-03T07:50:44;6.22;;;2.22;;
38851;SDS011;24605;50.092;9.182;2023-04-03T07:53:11;9.25;;;2.70;;
38851;SDS011;24605;50.092;9.182;2023-04-03T07:55:37;8.38;;;2.35;;
38851;SDS011;24605;50.092;9.182;2023-04-03T07:58:08;5.88;;;2.45;;
38851;SDS011;24605;50.092;9.182;2023-04-03T08:00:35;6.40;;;2.42;;
38851;SDS011;24605;50.092;9.182;2023-04-03T08:03:02;6.35;;;2.22;;
38851;SDS011;24605;50.092;9.182;2023-04-03T08:05:30;7.35;;;2.30;;
38851;SDS011;24605;50.092;9.182;2023-04-03T08:07:58;7.35;;;2.85;;
38851;SDS011;24605;50.092;9.182;2023-04-03T08:10:25;8.32;;;2.70;;
38851;SDS011;24605;50.092;9.182;2023-04-03T08:12:51;7.38;;;2.90;;
38851;SDS011;24605;50.092;9.182;2023-04-03T08:15:18;10.23;;;2.67;;
38851;SDS011;24605;50.092;9.182;2023-04-03T08:17:44;6.45;;;2.10;;
38851;SDS011;24605;50.092;9.182;2023-04-03T08:20:11;8.43;;;2.10;;
38851;SDS011;24605;50.092;9.182;2023-04-03T08:22:37;8.23;;;2.35;;
38851;SDS011;24605;50.092;9.182;2023-04-03T08:25:05;7.60;;;2.78;;
38851;SDS011;24605;50.092;9.182;2023-04-03T08:27:32;7.65;;;2.20;;
38851;SDS011;24605;50.092;9.182;2023-04-03T08:29:59;7.50;;;2.60;;
38851;SDS011;24605;50.092;9.182;2023-04-03T08:32:26;6.40;;;2.45;;
38851;SDS011;24605;50.092;9.182;2023-04-03T08:34:54;6.05;;;2.25;;
38851;SDS011;24605;50.092;9.182;2023-04-03T08:37:20;4.50;;;1.98;;
38851;SDS011;24605;50.092;9.182;2023-04-03T08:39:47;4.57;;;2.15;;
38851;SDS011;24605;50.092;9.182;2023-04-03T08:42:16;8.18;;;2.40;;
38851;SDS011;24605;50.092;9.182;2023-04-03T08:44:55;10.55;;;2.75;;
38851;SDS011;24605;50.092;9.182;2023-04-03T08:47:26;6.10;;;2.40;;
38851;SDS011;24605;50.092;9.182;2023-04-03T08:50:04;5.32;;;2.08;;
38851;SDS011;24605;50.092;9.182;2023-04-03T08:52:34;6.88;;;2.00;;
38851;SDS011;24605;50.092;9.182;2023-04-03T08:55:05;10.80;;;2.13;;
38851;SDS011;24605;50.092;9.182;2023-04-03T08:57:38;6.88;;;2.22;;
38851;SDS011;24605;50.092;9.182;2023-04-03T09:00:14;6.03;;;2.30;;
38851;SDS011;24605;50.092;9.182;2023-04-03T09:02:44;8.65;;;2.83;;
38851;SDS011;24605;50.092;9.182;2023-04-03T09:05:13;6.82;;;2.28;;
38851;SDS011;24605;50.092;9.182;2023-04-03T09:07:43;8.73;;;3.28;;
38851;SDS011;24605;50.092;9.182;2023-04-03T09:10:13;6.95;;;2.45;;
38851;SDS011;24605;50.092;9.182;2023-04-03T09:12:42;8.88;;;2.30;;
38851;SDS011;24605;50.092;9.182;2023-04-03T09:15:16;5.70;;;2.08;;
38851;SDS011;24605;50.092;9.182;2023-04-03T09:17:47;5.82;;;2.53;;
38851;SDS011;24605;50.092;9.182;2023-04-03T09:20:24;4.75;;;2.20;;
38851;SDS011;24605;50.092;9.182;2023-04-03T09:22:51;7.90;;;2.70;;
38851;SDS011;24605;50.092;9.182;2023-04-03T09:25:20;4.70;;;2.30;;
38851;SDS011;24605;50.092;9.182;2023-04-03T09:27:50;7.15;;;2.30;;
38851;SDS011;24605;50.092;9.182;2023-04-03T09:30:18;10.18;;;3.00;;
38851;SDS011;24605;50.092;9.182;2023-04-03T09:32:47;7.10;;;2.35;;
38851;SDS011;24605;50.092;9.182;2023-04-03T09:35:19;6.60;;;2.55;;
38851;SDS011;24605;50.092;9.182;2023-04-03T09:37:49;8.82;;;2.80;;
38851;SDS011;24605;50.092;9.182;2023-04-03T09:43:27;6.85;;;2.67;;
38851;SDS011;24605;50.092;9.182;2023-04-03T09:45:55;6.07;;;2.67;;
38851;SDS011;24605;50.092;9.182;2023-04-03T09:48:41;9.05;;;2.67;;
38851;SDS011;24605;50.092;9.182;2023-04-03T09:51:16;5.65;;;2.58;;
38851;SDS011;24605;50.092;9.182;2023-04-03T09:53:44;5.75;;;2.45;;
38851;SDS011;24605;50.092;9.182;2023-04-03T09:56:22;9.02;;;2.92;;
38851;SDS011;24605;50.092;9.182;2023-04-03T09:59:02;7.00;;;2.83;;
38851;SDS011;24605;50.092;9.182;2023-04-03T10:01:34;5.68;;;2.58;;
38851;SDS011;24605;50.092;9.182;2023-04-03T10:04:03;4.13;;;2.20;;
38851;SDS011;24605;50.092;9.182;2023-04-03T10:06:36;5.88;;;2.55;;
38851;SDS011;24605;50.092;9.182;2023-04-03T10:09:10;5.88;;;2.30;;
38851;SDS011;24605;50.092;9.182;2023-04-03T10:11:50;5.15;;;2.35;;
38851;SDS011;24605;50.092;9.182;2023-04-03T10:14:25;7.82;;;2.50;;
38851;SDS011;24605;50.092;9.182;2023-04-03T10:16:53;6.80;;;2.55;;
38851;SDS011;24605;50.092;9.182;2023-04-03T10:19:32;6.25;;;2.50;;
38851;SDS011;24605;50.092;9.182;2023-04-03T10:22:03;7.63;;;2.08;;
38851;SDS011;24605;50.092;9.182;2023-04-03T10:24:41;4.47;;;1.33;;
38851;SDS011;24605;50.092;9.182;2023-04-03T10:27:15;4.90;;;2.05;;
38851;SDS011;24605;50.092;9.182;2023-04-03T10:35:25;3.47;;;1.33;;
38851;SDS011;24605;50.092;9.182;2023-04-03T10:38:04;4.47;;;1.30;;
38851;SDS011;24605;50.092;9.182;2023-04-03T10:40:40;3.22;;;1.50;;
38851;SDS011;24605;50.092;9.182;2023-04-03T10:43:15;4.43;;;1.50;;
38851;SDS011;24605;50.092;9.182;2023-04-03T10:45:53;5.25;;;1.73;;
38851;SDS011;24605;50.092;9.182;2023-04-03T10:48:27;5.88;;;1.60;;
38851;SDS011;24605;50.092;9.182;2023-04-03T10:51:13;4.40;;;1.60;;
38851;SDS011;24605;50.092;9.182;2023-04-03T10:53:50;4.18;;;1.20;;
38851;SDS011;24605;50.092;9.182;2023-04-03T10:56:24;2.85;;;1.40;;
38851;SDS011;24605;50.092;9.182;2023-04-03T10:58:58;5.68;;;1.90;;
38851;SDS011;24605;50.092;9.182;2023-04-03T11:01:35;5.38;;;1.17;;
38851;SDS011;24605;50.092;9.182;2023-04-03T11:04:06;4.93;;;1.40;;
38851;SDS011;24605;50.092;9.182;2023-04-03T11:06:35;6.85;;;1.73;;
38851;SDS011;24605;50.092;9.182;2023-04-03T11:09:07;5.07;;;1.80;;
38851;SDS011;24605;50.092;9.182;2023-04-03T11:11:43;6.30;;;1.80;;
38851;SDS011;24605;50.092;9.182;2023-04-03T11:14:13;2.97;;;1.40;;
38851;SDS011;24605;50.092;9.182;2023-04-03T11:16:45;4.60;;;1.58;;
38851;SDS011;24605;50.092;9.182;2023-04-03T11:19:16;4.68;;;1.70;;
38851;SDS011;24605;50.092;9.182;2023-04-03T11:21:49;3.40;;;1.80;;
38851;SDS011;24605;50.092;9.182;2023-04-03T11:24:22;4.63;;;1.40;;
38851;SDS011;24605;50.092;9.182;2023-04-03T11:26:52;6.35;;;1.90;;
38851;SDS011;24605;50.092;9.182;2023-04-03T11:29:22;6.93;;;1.70;;
38851;SDS011;24605;50.092;9.182;2023-04-03T11:32:01;5.30;;;1.38;;
38851;SDS011;24605;50.092;9.182;2023-04-03T11:34:36;5.50;;;1.75;;
38851;SDS011;24605;50.092;9.182;2023-04-03T11:37:11;3.15;;;1.30;;
38851;SDS011;24605;50.092;9.182;2023-04-03T11:39:46;3.83;;;1.55;;
38851;SDS011;24605;50.092;9.182;2023-04-03T11:42:23;4.53;;;1.48;;
38851;SDS011;24605;50.092;9.182;2023-04-03T11:47:51;4.22;;;1.80;;
38851;SDS011;24605;50.092;9.182;2023-04-03T11:50:32;3.85;;;1.60;;
38851;SDS011;24605;50.092;9.182;2023-04-03T11:53:29;6.72;;;1.80;;
38851;SDS011;24605;50.092;9.182;2023-04-03T12:01:47;5.05;;;1.50;;
38851;SDS011;24605;50.092;9.182;2023-04-03T12:04:17;6.93;;;1.67;;
38851;SDS011;24605;50.092;9.182;2023-04-03T12:09:56;6.18;;;1.60;;
38851;SDS011;24605;50.092;9.182;2023-04-03T12:12:29;3.00;;;1.30;;
38851;SDS011;24605;50.092;9.182;2023-04-03T12:15:11;4.40;;;1.40;;
38851;SDS011;24605;50.092;9.182;2023-04-03T12:17:50;4.63;;;1.48;;
38851;SDS011;24605;50.092;9.182;2023-04-03T12:23:29;5.07;;;1.55;;
38851;SDS011;24605;50.092;9.182;2023-04-03T12:26:02;6.35;;;1.70;;
38851;SDS011;24605;50.092;9.182;2023-04-03T12:28:36;5.50;;;1.67;;
38851;SDS011;24605;50.092;9.182;2023-04-03T12:31:05;5.17;;;1.93;;
38851;SDS011;24605;50.092;9.182;2023-04-03T12:33:38;4.10;;;1.48;;
38851;SDS011;24605;50.092;9.182;2023-04-03T12:36:28;5.18;;;1.90;;
38851;SDS011;24605;50.092;9.182;2023-04-03T12:39:13;2.87;;;1.40;;
38851;SDS011;24605;50.092;9.182;2023-04-03T12:41:53;2.90;;;1.48;;
38851;SDS011;24605;50.092;9.182;2023-04-03T12:44:27;3.30;;;1.10;;
38851;SDS011;24605;50.092;9.182;2023-04-03T12:47:07;3.60;;;1.30;;
38851;SDS011;24605;50.092;9.182;2023-04-03T12:49:46;4.90;;;1.30;;
38851;SDS011;24605;50.092;9.182;2023-04-03T12:52:18;5.25;;;2.35;;
38851;SDS011;24605;50.092;9.182;2023-04-03T12:54:50;2.70;;;1.27;;
38851;SDS011;24605;50.092;9.182;2023-04-03T12:57:18;5.85;;;1.73;;
38851;SDS011;24605;50.092;9.182;2023-04-03T12:59:45;4.32;;;1.25;;
38851;SDS011;24605;50.092;9.182;2023-04-03T13:04:59;3.72;;;1.40;;
38851;SDS011;24605;50.092;9.182;2023-04-03T13:07:33;3.83;;;1.52;;
38851;SDS011;24605;50.092;9.182;2023-04-03T13:10:10;3.33;;;1.50;;
38851;SDS011;24605;50.092;9.182;2023-04-03T13:12:45;2.70;;;1.23;;
38851;SDS011;24605;50.092;9.182;2023-04-03T13:15:15;4.07;;;1.30;;
38851;SDS011;24605;50.092;9.182;2023-04-03T13:17:44;4.00;;;1.40;;
38851;SDS011;24605;50.092;9.182;2023-04-03T13:20:13;4.03;;;1.35;;
38851;SDS011;24605;50.092;9.182;2023-04-03T13:22:47;2.83;;;1.40;;
38851;SDS011;24605;50.092;9.182;2023-04-03T13:25:16;4.65;;;1.35;;
38851;SDS011;24605;50.092;9.182;2023-04-03T13:27:45;5.03;;;1.60;;
38851;SDS011;24605;50.092;9.182;2023-04-03T13:30:18;4.95;;;1.40;;
38851;SDS011;24605;50.092;9.182;2023-04-03T13:32:49;3.28;;;1.48;;
38851;SDS011;24605;50.092;9.182;2023-04-03T13:35:26;5.38;;;1.70;;
38851;SDS011;24605;50.092;9.182;2023-04-03T13:38:00;4.97;;;1.60;;
38851;SDS011;24605;50.092;9.182;2023-04-03T13:40:30;5.53;;;1.65;;
38851;SDS011;24605;50.092;9.182;2023-04-03T13:43:04;5.20;;;1.70;;
38851;SDS011;24605;50.092;9.182;2023-04-03T13:45:33;6.38;;;2.38;;
38851;SDS011;24605;50.092;9.182;2023-04-03T13:48:08;7.20;;;2.00;;
38851;SDS011;24605;50.092;9.182;2023-04-03T13:50:51;6.60;;;2.42;;
38851;SDS011;24605;50.092;9.182;2023-04-03T13:53:22;6.18;;;1.60;;
38851;SDS011;24605;50.092;9.182;2023-04-03T13:55:54;5.40;;;1.73;;
38851;SDS011;24605;50.092;9.182;2023-04-03T13:58:23;5.22;;;1.70;;
38851;SDS011;24605;50.092;9.182;2023-04-03T14:00:52;5.00;;;1.63;;
38851;SDS011;24605;50.092;9.182;2023-04-03T14:03:22;4.47;;;1.77;;
38851;SDS011;24605;50.092;9.182;2023-04-03T14:05:50;4.85;;;2.03;;
38851;SDS011;24605;50.092;9.182;2023-04-03T14:08:17;5.25;;;1.60;;
38851;SDS011;24605;50.092;9.182;2023-04-03T14:10:45;3.58;;;1.35;;
38851;SDS011;24605;50.092;9.182;2023-04-03T14:13:15;4.05;;;1.45;;
38851;SDS011;24605;50.092;9.182;2023-04-03T14:15:44;6.07;;;1.85;;
38851;SDS011;24605;50.092;9.182;2023-04-03T14:18:13;3.72;;;1.58;;
38851;SDS011;24605;50.092;9.182;2023-04-03T14:20:41;3.35;;;1.60;;
38851;SDS011;24605;50.092;9.182;2023-04-03T14:23:08;5.07;;;2.15;;
38851;SDS011;24605;50.092;9.182;2023-04-03T14:25:35;4.05;;;1.58;;
38851;SDS011;24605;50.092;9.182;2023-04-03T14:28:06;4.53;;;1.58;;
38851;SDS011;24605;50.092;9.182;2023-04-03T14:30:40;4.25;;;1.40;;
38851;SDS011;24605;50.092;9.182;2023-04-03T14:33:09;4.00;;;1.20;;
38851;SDS011;24605;50.092;9.182;2023-04-03T14:35:38;3.60;;;1.50;;
38851;SDS011;24605;50.092;9.182;2023-04-03T14:38:05;5.50;;;1.40;;
38851;SDS011;24605;50.092;9.182;2023-04-03T14:40:42;3.22;;;1.20;;
38851;SDS011;24605;50.092;9.182;2023-04-03T14:43:10;4.45;;;1.27;;
38851;SDS011;24605;50.092;9.182;2023-04-03T14:45:39;3.53;;;1.20;;
38851;SDS011;24605;50.092;9.182;2023-04-03T14:48:06;4.20;;;1.20;;
38851;SDS011;24605;50.092;9.182;2023-04-03T14:50:39;5.88;;;1.30;;
38851;SDS011;24605;50.092;9.182;2023-04-03T14:53:05;4.63;;;1.30;;
38851;SDS011;24605;50.092;9.182;2023-04-03T14:55:33;3.08;;;1.02;;
38851;SDS011;24605;50.092;9.182;2023-04-03T14:58:00;3.08;;;1.10;;
38851;SDS011;24605;50.092;9.182;2023-04-03T15:00:29;3.28;;;1.02;;
38851;SDS011;24605;50.092;9.182;2023-04-03T15:02:55;3.42;;;1.20;;
38851;SDS011;24605;50.092;9.182;2023-04-03T15:05:22;3.25;;;1.25;;
38851;SDS011;24605;50.092;9.182;2023-04-03T15:07:49;3.28;;;0.98;;
38851;SDS011;24605;50.092;9.182;2023-04-03T15:10:19;4.15;;;1.05;;
38851;SDS011;24605;50.092;9.182;2023-04-03T15:12:48;5.00;;;1.10;;
38851;SDS011;24605;50.092;9.182;2023-04-03T15:15:16;3.88;;;1.10;;
38851;SDS011;24605;50.092;9.182;2023-04-03T15:17:46;5.18;;;1.30;;
38851;SDS011;24605;50.092;9.182;2023-04-03T15:20:19;3.53;;;1.33;;
38851;SDS011;24605;50.092;9.182;2023-04-03T15:22:47;4.00;;;1.02;;
38851;SDS011;24605;50.092;9.182;2023-04-03T15:25:14;4.07;;;1.10;;
38851;SDS011;24605;50.092;9.182;2023-04-03T15:27:41;6.78;;;1.25;;
38851;SDS011;24605;50.092;9.182;2023-04-03T15:30:11;2.50;;;0.80;;